Time;durP1;ratioP1;P1;durP2;ratioP2;P2;SDS_P1;SDS_P2;PMS_P1;PMS_P2;Temp;Humidity;BMP_temperature;BMP_pressure;BME280_temperature;BME280_humidity;BME280_pressure;Samples;Min_cycle;Max_cycle;Signal;HPM_P1;HPM_P2
2022/12/31 00:00:59;;;;;;;1.00;0.60;;;12.40;99.90;;;;;;5074052;28;20815;-75
2022/12/31 00:03:26;;;;;;;1.10;0.70;;;12.50;99.90;;;;;;5074197;28;20944;-76
2022/12/31 00:05:53;;;;;;;1.03;0.70;;;12.40;99.90;;;;;;5074469;28;20456;-75
2022/12/31 00:08:20;;;;;;;1.00;0.57;;;12.50;99.90;;;;;;5073243;28;20457;-75
2022/12/31 00:10:47;;;;;;;0.90;0.60;;;12.40;99.90;;;;;;5073582;28;20470;-76
2022/12/31 00:13:15;;;;;;;1.60;0.60;;;12.30;99.90;;;;;;5073412;28;20449;-75
2022/12/31 00:15:43;;;;;;;0.93;0.73;;;12.20;99.90;;;;;;5073924;28;20925;-76
2022/12/31 00:18:11;;;;;;;1.60;1.10;;;12.30;99.90;;;;;;5073196;28;20468;-75
2022/12/31 00:20:40;;;;;;;2.50;0.80;;;12.30;99.90;;;;;;5073900;28;20452;-75
2022/12/31 00:23:08;;;;;;;1.10;0.63;;;12.30;99.90;;;;;;5073648;28;20495;-75
2022/12/31 00:25:35;;;;;;;1.07;0.70;;;12.30;99.90;;;;;;5074183;28;20458;-75
2022/12/31 00:28:03;;;;;;;1.23;0.60;;;12.40;99.90;;;;;;5073394;28;20491;-74
2022/12/31 00:30:31;;;;;;;1.53;0.67;;;12.50;99.90;;;;;;5073726;28;20485;-75
2022/12/31 00:32:58;;;;;;;2.33;0.63;;;12.60;99.90;;;;;;5073869;28;20495;-75
2022/12/31 00:35:25;;;;;;;1.00;0.70;;;12.60;99.90;;;;;;5073112;28;20449;-75
2022/12/31 00:37:52;;;;;;;1.50;0.90;;;12.70;99.90;;;;;;5073765;28;20461;-75
2022/12/31 00:40:19;;;;;;;1.70;0.73;;;12.70;99.90;;;;;;5072907;28;20866;-75
2022/12/31 00:42:46;;;;;;;1.10;0.70;;;12.60;99.90;;;;;;5073197;28;20449;-75
2022/12/31 00:45:13;;;;;;;0.80;0.50;;;12.60;99.90;;;;;;5073305;28;20438;-75
2022/12/31 00:47:41;;;;;;;0.80;0.50;;;12.70;99.90;;;;;;5073427;28;20460;-75
2022/12/31 00:50:08;;;;;;;1.10;0.60;;;12.80;99.90;;;;;;5072723;28;20824;-75
2022/12/31 00:52:35;;;;;;;1.00;0.67;;;12.80;99.90;;;;;;5073632;28;20572;-75
2022/12/31 00:55:02;;;;;;;1.00;0.67;;;12.70;99.90;;;;;;5072689;28;20936;-75
2022/12/31 00:57:29;;;;;;;3.33;0.80;;;12.80;99.90;;;;;;5073759;28;20873;-75
2022/12/31 00:59:55;;;;;;;0.90;0.60;;;12.90;99.90;;;;;;5073050;28;20803;-75
2022/12/31 01:02:22;;;;;;;0.97;0.70;;;13.00;99.90;;;;;;5072888;28;20458;-75
2022/12/31 01:04:50;;;;;;;0.90;0.50;;;13.00;99.90;;;;;;5073375;28;20449;-75
2022/12/31 01:07:17;;;;;;;0.80;0.50;;;13.20;99.90;;;;;;5072850;28;20453;-75
2022/12/31 01:09:44;;;;;;;0.80;0.60;;;13.20;99.90;;;;;;5072802;28;20476;-75
2022/12/31 01:12:11;;;;;;;0.70;0.50;;;13.40;71.10;;;;;;5072313;28;20491;-75
2022/12/31 01:14:38;;;;;;;1.33;0.53;;;13.40;37.50;;;;;;5073241;28;20816;-75
2022/12/31 01:17:04;;;;;;;1.20;0.90;;;13.40;28.40;;;;;;5072493;28;20507;-75
2022/12/31 01:19:31;;;;;;;0.90;0.53;;;13.40;48.60;;;;;;5072626;28;20472;-75
2022/12/31 01:22:00;;;;;;;0.87;0.60;;;13.40;20.50;;;;;;5072983;28;20461;-75
2022/12/31 01:24:26;;;;;;;1.57;0.90;;;13.60;6.00;;;;;;5073039;28;20450;-75
2022/12/31 01:26:56;;;;;;;0.90;0.70;;;13.60;1.00;;;;;;5072571;28;20446;-75
2022/12/31 01:29:23;;;;;;;1.00;0.60;;;13.80;1.00;;;;;;5071871;28;20463;-75
2022/12/31 01:31:50;;;;;;;0.90;0.60;;;13.70;1.00;;;;;;5072700;28;20477;-75
2022/12/31 01:34:17;;;;;;;0.90;0.60;;;13.70;1.00;;;;;;5072213;28;20450;-75
2022/12/31 01:36:43;;;;;;;0.90;0.70;;;13.70;1.00;;;;;;5072701;28;20532;-75
2022/12/31 01:39:12;;;;;;;1.03;0.60;;;13.80;1.00;;;;;;5071637;28;20456;-75
2022/12/31 01:41:41;;;;;;;1.00;0.57;;;13.70;1.00;;;;;;5072646;28;20450;-75
2022/12/31 01:44:41;;;;;;;0.80;0.60;;;13.70;1.00;;;;;;5071655;28;20452;-75
2022/12/31 01:47:15;;;;;;;1.73;0.50;;;13.80;1.00;;;;;;5071759;28;20453;-75
2022/12/31 01:49:44;;;;;;;0.90;0.57;;;13.70;1.00;;;;;;5071775;28;20441;-75
2022/12/31 01:52:14;;;;;;;0.80;0.50;;;13.80;1.00;;;;;;5071728;28;20492;-75
2022/12/31 01:54:47;;;;;;;0.90;0.70;;;13.70;1.00;;;;;;5071708;28;20449;-75
2022/12/31 01:57:15;;;;;;;1.17;0.70;;;13.70;1.00;;;;;;5071421;28;20503;-75
2022/12/31 01:59:43;;;;;;;3.10;0.67;;;13.70;1.00;;;;;;5071582;28;20453;-75
2022/12/31 02:02:11;;;;;;;0.80;0.40;;;13.70;1.00;;;;;;5071354;28;20456;-75
2022/12/31 02:04:37;;;;;;;1.83;0.70;;;13.70;1.00;;;;;;5072008;28;20442;-75
2022/12/31 02:07:07;;;;;;;1.70;0.63;;;13.80;1.00;;;;;;5071492;28;20465;-75
2022/12/31 02:09:37;;;;;;;0.80;0.60;;;13.80;1.00;;;;;;5071193;28;20477;-74
2022/12/31 02:12:06;;;;;;;1.30;0.60;;;13.70;1.00;;;;;;5071972;28;20888;-74
2022/12/31 02:14:36;;;;;;;1.80;0.83;;;13.90;1.00;;;;;;5071936;28;20450;-74
2022/12/31 02:17:10;;;;;;;0.90;0.50;;;13.80;1.00;;;;;;5071317;28;20442;-75
2022/12/31 02:20:19;;;;;;;1.73;0.87;;;13.70;1.00;;;;;;5071436;28;20777;-74
2022/12/31 02:23:24;;;;;;;2.60;0.60;;;13.60;1.00;;;;;;5057117;28;20464;-75
2022/12/31 02:26:10;;;;;;;0.90;0.60;;;13.40;1.00;;;;;;5042593;28;20454;-75
2022/12/31 02:28:56;;;;;;;1.30;0.60;;;13.50;1.00;;;;;;5071938;28;20445;-75
2022/12/31 02:31:28;;;;;;;1.70;0.50;;;13.50;1.00;;;;;;5070595;28;20481;-75
2022/12/31 02:34:01;;;;;;;0.80;0.60;;;13.40;1.00;;;;;;5071586;28;20446;-74
2022/12/31 02:36:33;;;;;;;0.80;0.63;;;13.40;1.00;;;;;;5059586;28;20453;-75
2022/12/31 02:39:01;;;;;;;0.80;0.57;;;13.30;1.00;;;;;;5070970;28;20445;-75
2022/12/31 02:44:23;;;;;;;0.80;0.53;;;13.60;1.00;;;;;;5070710;28;20513;-75
2022/12/31 02:47:00;;;;;;;0.80;0.50;;;13.80;99.90;;;;;;5071358;28;20438;-74
2022/12/31 02:49:35;;;;;;;1.53;0.50;;;13.70;99.90;;;;;;5058649;28;20440;-75
2022/12/31 02:52:10;;;;;;;1.40;0.80;;;13.70;99.90;;;;;;5070446;28;20480;-74
2022/12/31 02:54:47;;;;;;;1.00;0.80;;;13.70;99.90;;;;;;5071222;28;20444;-74
2022/12/31 02:57:20;;;;;;;0.87;0.50;;;13.60;99.90;;;;;;5070902;28;20441;-75
2022/12/31 03:02:43;;;;;;;0.70;0.50;;;13.70;99.90;;;;;;5060035;28;20952;-74
2022/12/31 03:05:11;;;;;;;0.90;0.60;;;13.70;99.90;;;;;;5070213;28;20939;-75
2022/12/31 03:07:41;;;;;;;1.00;0.60;;;13.80;99.90;;;;;;5070691;28;20454;-75
2022/12/31 03:10:08;;;;;;;1.20;0.60;;;14.00;99.90;;;;;;5070140;28;20595;-74
2022/12/31 03:12:47;;;;;;;1.20;0.67;;;14.20;1.00;;;;;;5071087;28;20484;-74
2022/12/31 03:15:19;;;;;;;1.07;0.80;;;14.10;1.00;;;;;;5070676;28;20762;-74
2022/12/31 03:17:50;;;;;;;1.00;0.63;;;14.10;1.00;;;;;;5070986;28;20444;-74
2022/12/31 03:23:04;;;;;;;0.90;0.53;;;14.00;58.20;;;;;;5070380;28;20928;-73
2022/12/31 03:25:33;;;;;;;0.80;0.50;;;14.20;1.00;;;;;;5071098;28;20452;-74
2022/12/31 03:28:01;;;;;;;0.67;0.40;;;14.20;1.00;;;;;;5070832;28;20532;-74
2022/12/31 03:30:28;;;;;;;0.83;0.53;;;14.20;1.00;;;;;;5070780;28;20445;-74
2022/12/31 03:32:56;;;;;;;2.30;0.60;;;14.30;1.00;;;;;;5070760;28;20835;-74
2022/12/31 03:35:24;;;;;;;0.70;0.50;;;14.40;1.00;;;;;;5070206;28;20450;-74
2022/12/31 03:37:52;;;;;;;0.90;0.63;;;14.60;1.00;;;;;;5070641;28;20552;-74
2022/12/31 03:40:20;;;;;;;1.40;0.60;;;14.70;1.00;;;;;;5070054;28;20541;-74
2022/12/31 03:42:47;;;;;;;1.00;0.60;;;14.60;1.00;;;;;;5070580;28;20934;-74
2022/12/31 03:45:13;;;;;;;1.53;0.67;;;14.60;1.00;;;;;;5070406;28;20457;-74
2022/12/31 03:47:40;;;;;;;0.90;0.63;;;14.80;99.90;;;;;;5070604;28;20450;-74
2022/12/31 03:50:10;;;;;;;0.80;0.50;;;15.00;99.90;;;;;;5069671;28;20457;-74
2022/12/31 03:52:37;;;;;;;1.20;0.53;;;14.90;99.90;;;;;;5070773;28;20477;-74
2022/12/31 03:55:04;;;;;;;1.13;0.60;;;14.80;1.00;;;;;;5070386;28;20446;-73
2022/12/31 03:57:32;;;;;;;1.17;0.70;;;14.90;1.00;;;;;;5057742;28;20469;-74
2022/12/31 03:59:59;;;;;;;0.83;0.50;;;15.00;99.90;;;;;;5070466;28;20545;-74
2022/12/31 04:02:26;;;;;;;1.17;0.70;;;15.00;99.90;;;;;;5070343;28;20532;-74
2022/12/31 04:04:53;;;;;;;1.20;0.70;;;14.90;1.00;;;;;;5070320;28;20456;-74
2022/12/31 04:07:21;;;;;;;1.10;0.70;;;15.00;1.00;;;;;;5070130;28;20466;-74
2022/12/31 04:09:47;;;;;;;0.90;0.60;;;15.00;99.90;;;;;;5069822;28;20476;-74
2022/12/31 04:12:14;;;;;;;0.77;0.50;;;15.10;99.90;;;;;;5069989;28;20522;-74
2022/12/31 04:14:41;;;;;;;1.20;0.60;;;15.10;99.90;;;;;;5070589;28;20446;-74
2022/12/31 04:17:08;;;;;;;0.70;0.47;;;15.10;99.90;;;;;;5069912;28;20456;-73
2022/12/31 04:19:35;;;;;;;0.90;0.50;;;15.20;99.90;;;;;;5073117;28;20455;-74
2022/12/31 04:22:01;;;;;;;1.20;0.70;;;15.20;99.90;;;;;;5073639;28;20486;-73
2022/12/31 04:24:30;;;;;;;1.77;0.60;;;15.40;1.00;;;;;;5074156;28;20450;-74
2022/12/31 04:26:57;;;;;;;0.70;0.40;;;15.30;1.00;;;;;;5074228;28;20453;-74
2022/12/31 04:29:24;;;;;;;0.70;0.50;;;15.20;99.90;;;;;;5072970;28;20466;-74
2022/12/31 04:31:50;;;;;;;1.10;0.60;;;15.20;99.90;;;;;;5073788;28;20481;-74
2022/12/31 04:34:17;;;;;;;0.80;0.50;;;15.10;99.90;;;;;;5073284;28;20446;-74
2022/12/31 04:36:44;;;;;;;1.50;0.60;;;14.90;1.00;;;;;;5073801;28;20817;-74
2022/12/31 04:39:11;;;;;;;0.70;0.50;;;14.80;1.00;;;;;;5072944;28;20446;-74
2022/12/31 04:41:39;;;;;;;1.07;0.70;;;14.80;1.00;;;;;;5073921;28;20453;-74
2022/12/31 04:44:06;;;;;;;0.90;0.60;;;15.00;1.00;;;;;;5073236;28;20457;-74
2022/12/31 04:46:33;;;;;;;1.20;0.80;;;14.90;1.00;;;;;;5073310;28;20465;-74
2022/12/31 04:49:02;;;;;;;1.53;0.60;;;14.90;1.00;;;;;;5073364;28;20783;-74
2022/12/31 04:51:30;;;;;;;0.80;0.53;;;14.70;1.00;;;;;;5073791;28;20465;-74
2022/12/31 04:53:57;;;;;;;0.90;0.63;;;14.80;1.00;;;;;;5073870;28;20449;-74
2022/12/31 04:56:24;;;;;;;1.23;0.60;;;14.90;1.00;;;;;;5073135;28;20489;-74
2022/12/31 04:58:52;;;;;;;0.87;0.50;;;14.80;1.00;;;;;;5072790;28;21000;-74
2022/12/31 05:01:19;;;;;;;0.80;0.60;;;14.80;1.00;;;;;;5072929;28;20450;-74
2022/12/31 05:03:46;;;;;;;1.23;0.73;;;14.80;1.00;;;;;;5073045;28;20977;-74
2022/12/31 05:06:15;;;;;;;1.30;0.60;;;14.70;75.30;;;;;;5072904;28;20446;-74
2022/12/31 05:08:42;;;;;;;0.70;0.40;;;14.50;99.90;;;;;;5072841;28;20477;-74
2022/12/31 05:11:10;;;;;;;1.10;0.80;;;14.40;99.90;;;;;;5072851;28;20888;-74
2022/12/31 05:13:37;;;;;;;1.20;0.60;;;14.40;99.90;;;;;;5073142;28;20492;-74
2022/12/31 05:16:07;;;;;;;3.57;0.67;;;14.40;99.90;;;;;;5072781;28;20457;-74
2022/12/31 05:18:34;;;;;;;0.93;0.63;;;14.50;99.90;;;;;;5065002;28;21049;-73
2022/12/31 05:21:01;;;;;;;1.03;0.60;;;14.40;99.90;;;;;;5072171;28;20964;-72
2022/12/31 05:23:28;;;;;;;0.80;0.60;;;14.30;99.90;;;;;;5073293;28;20449;-74
2022/12/31 05:25:55;;;;;;;0.60;0.40;;;14.30;99.90;;;;;;5072629;28;20893;-74
2022/12/31 05:28:22;;;;;;;0.80;0.50;;;14.50;99.90;;;;;;5072415;28;20448;-74
2022/12/31 05:30:50;;;;;;;0.80;0.53;;;14.40;99.90;;;;;;5072400;28;20782;-74
2022/12/31 05:33:19;;;;;;;0.80;0.50;;;14.50;99.90;;;;;;5072163;28;20841;-74
2022/12/31 05:35:46;;;;;;;0.87;0.50;;;14.50;99.90;;;;;;5072643;28;20446;-74
2022/12/31 05:38:13;;;;;;;0.90;0.70;;;14.40;99.90;;;;;;5072373;28;20454;-74
2022/12/31 05:40:39;;;;;;;1.43;0.60;;;14.40;99.90;;;;;;5071952;28;20446;-73
2022/12/31 05:43:06;;;;;;;0.77;0.57;;;14.30;99.90;;;;;;5072166;28;20453;-74
2022/12/31 05:45:33;;;;;;;0.70;0.50;;;14.30;99.90;;;;;;5072552;28;20445;-74
2022/12/31 05:48:00;;;;;;;0.73;0.47;;;14.20;1.00;;;;;;5072632;28;20461;-74
2022/12/31 05:50:29;;;;;;;0.80;0.57;;;14.30;99.90;;;;;;5072215;28;20449;-74
2022/12/31 05:52:55;;;;;;;0.87;0.63;;;14.30;99.90;;;;;;5072731;28;20481;-74
2022/12/31 05:55:22;;;;;;;0.80;0.50;;;14.30;1.00;;;;;;5071550;28;20457;-74
2022/12/31 05:57:49;;;;;;;0.70;0.40;;;14.30;99.90;;;;;;5072427;28;20540;-74
2022/12/31 06:00:16;;;;;;;0.80;0.53;;;14.30;1.00;;;;;;5071017;28;20967;-74
2022/12/31 06:02:43;;;;;;;2.33;0.60;;;14.40;99.90;;;;;;5072090;28;20461;-74
2022/12/31 06:05:11;;;;;;;0.90;0.60;;;14.30;1.00;;;;;;5071264;28;20975;-73
2022/12/31 06:07:39;;;;;;;0.80;0.60;;;14.30;1.00;;;;;;5072166;28;20464;-73
2022/12/31 06:10:07;;;;;;;1.87;0.53;;;14.20;1.00;;;;;;5070804;28;20474;-73
2022/12/31 06:12:35;;;;;;;1.13;0.70;;;14.30;1.00;;;;;;5072038;28;20492;-73
2022/12/31 06:15:02;;;;;;;0.80;0.60;;;14.20;1.00;;;;;;5071085;28;20924;-72
2022/12/31 06:17:30;;;;;;;1.33;0.77;;;14.40;1.00;;;;;;5071646;28;20454;-73
2022/12/31 06:19:57;;;;;;;1.23;0.80;;;14.50;99.90;;;;;;5071738;28;20452;-74
2022/12/31 06:22:24;;;;;;;1.13;0.70;;;14.50;99.90;;;;;;5071286;28;20972;-74
2022/12/31 06:24:52;;;;;;;0.80;0.60;;;14.40;99.90;;;;;;5071789;28;20445;-73
2022/12/31 06:27:19;;;;;;;0.80;0.60;;;14.30;99.90;;;;;;5071438;28;20450;-74
2022/12/31 06:29:46;;;;;;;0.70;0.50;;;14.30;1.00;;;;;;5071305;28;20445;-73
2022/12/31 06:32:13;;;;;;;1.00;0.57;;;14.30;1.00;;;;;;5070690;28;20489;-74
2022/12/31 06:34:40;;;;;;;0.90;0.70;;;14.30;1.00;;;;;;5071657;28;20446;-73
2022/12/31 06:37:07;;;;;;;0.60;0.40;;;14.40;99.90;;;;;;5070836;28;20464;-73
2022/12/31 06:39:34;;;;;;;1.50;0.70;;;14.30;1.00;;;;;;5070864;28;20452;-73
2022/12/31 06:42:02;;;;;;;0.97;0.50;;;14.30;1.00;;;;;;5071050;28;20937;-74
2022/12/31 06:44:28;;;;;;;0.80;0.53;;;14.40;99.90;;;;;;5058487;28;20452;-74
2022/12/31 06:46:55;;;;;;;0.90;0.57;;;14.40;99.90;;;;;;5071691;28;20456;-74
2022/12/31 06:49:22;;;;;;;1.10;0.70;;;14.30;99.90;;;;;;5069675;28;20457;-73
2022/12/31 06:51:49;;;;;;;0.90;0.60;;;14.30;99.90;;;;;;5071545;28;20460;-74
2022/12/31 06:54:15;;;;;;;0.73;0.50;;;14.40;99.90;;;;;;5070558;28;20481;-73
2022/12/31 06:56:43;;;;;;;0.80;0.40;;;14.30;99.90;;;;;;5071455;28;20455;-73
2022/12/31 06:59:32;;;;;;;0.90;0.80;;;14.20;1.00;;;;;;5057376;28;20809;-73
2022/12/31 07:02:11;;;;;;;0.80;0.60;;;14.20;1.00;;;;;;5068192;28;20892;-74
2022/12/31 07:05:08;;;;;;;1.07;0.67;;;14.10;1.00;;;;;;5071503;28;20468;-73
2022/12/31 07:07:43;;;;;;;1.23;0.60;;;14.10;1.00;;;;;;5071497;28;20449;-73
2022/12/31 07:10:19;;;;;;;2.00;0.70;;;14.00;1.00;;;;;;5070415;28;20495;-73
2022/12/31 07:12:58;;;;;;;1.73;0.77;;;14.00;1.00;;;;;;5070972;28;20471;-73
2022/12/31 07:15:41;;;;;;;0.70;0.40;;;14.10;1.00;;;;;;5057170;28;20960;-73
2022/12/31 07:18:19;;;;;;;0.90;0.70;;;14.10;1.00;;;;;;5070559;28;20441;-73
2022/12/31 07:20:46;;;;;;;1.40;0.70;;;14.10;1.00;;;;;;5071245;28;20452;-74
2022/12/31 07:23:13;;;;;;;0.97;0.60;;;14.10;1.00;;;;;;5070536;28;20450;-74
2022/12/31 07:25:46;;;;;;;0.90;0.60;;;14.10;1.00;;;;;;5071093;28;20469;-74
2022/12/31 07:28:26;;;;;;;1.90;0.80;;;14.20;1.00;;;;;;5070217;28;20442;-73
2022/12/31 07:31:02;;;;;;;1.40;0.73;;;14.30;99.90;;;;;;5070835;28;20940;-74
2022/12/31 07:33:47;;;;;;;1.50;0.73;;;14.30;99.90;;;;;;5071203;28;20474;-73
2022/12/31 07:36:27;;;;;;;0.80;0.60;;;14.40;99.90;;;;;;5070579;28;20479;-73
2022/12/31 07:39:00;;;;;;;0.73;0.50;;;14.40;99.90;;;;;;5070719;28;20452;-74
2022/12/31 07:41:41;;;;;;;0.90;0.73;;;14.40;99.90;;;;;;5071078;28;20437;-74
2022/12/31 07:44:15;;;;;;;2.73;0.70;;;14.50;99.90;;;;;;5070393;28;20450;-74
2022/12/31 07:46:50;;;;;;;1.73;0.60;;;14.50;99.90;;;;;;5070751;28;20447;-74
2022/12/31 07:49:17;;;;;;;1.20;0.67;;;14.60;99.90;;;;;;5069762;28;20465;-74
2022/12/31 07:51:45;;;;;;;1.27;0.70;;;14.60;99.90;;;;;;5070958;28;20457;-74
2022/12/31 07:54:12;;;;;;;1.20;0.80;;;14.60;99.00;;;;;;5059303;28;20487;-73
2022/12/31 07:56:38;;;;;;;0.80;0.57;;;14.70;1.00;;;;;;5074493;28;20545;-74
2022/12/31 07:59:17;;;;;;;2.20;0.60;;;14.90;1.00;;;;;;5060644;28;20441;-74
2022/12/31 08:01:49;;;;;;;1.60;0.80;;;14.80;1.00;;;;;;5074177;28;20951;-74
2022/12/31 08:04:26;;;;;;;1.00;0.57;;;14.90;1.00;;;;;;5074053;28;20453;-74
2022/12/31 08:07:02;;;;;;;1.20;0.73;;;14.90;1.00;;;;;;5074318;28;20831;-74
2022/12/31 08:09:46;;;;;;;0.90;0.70;;;14.90;1.00;;;;;;5074140;28;20493;-74
2022/12/31 08:12:14;;;;;;;0.80;0.60;;;14.90;1.00;;;;;;5073609;28;20909;-74
2022/12/31 08:14:44;;;;;;;0.80;0.50;;;14.90;1.00;;;;;;5074100;28;20481;-73
2022/12/31 08:17:16;;;;;;;1.00;0.70;;;15.10;99.90;;;;;;5073777;28;20456;-74
2022/12/31 08:19:44;;;;;;;1.00;0.70;;;15.10;99.90;;;;;;5073902;28;20449;-74
2022/12/31 08:22:26;;;;;;;0.80;0.60;;;15.30;1.00;;;;;;5073692;28;20445;-73
2022/12/31 08:25:04;;;;;;;2.13;0.70;;;15.30;1.00;;;;;;5074066;28;20457;-74
2022/12/31 08:27:39;;;;;;;1.00;0.70;;;15.30;1.00;;;;;;5074277;28;20448;-73
2022/12/31 08:30:10;;;;;;;1.40;0.80;;;15.20;1.00;;;;;;5072962;28;20847;-74
2022/12/31 08:32:46;;;;;;;1.53;0.83;;;15.20;1.00;;;;;;5073842;28;20441;-74
2022/12/31 08:35:28;;;;;;;0.93;0.73;;;15.20;1.00;;;;;;5073275;28;20434;-73
2022/12/31 08:38:02;;;;;;;1.33;0.70;;;15.20;1.00;;;;;;5073968;28;20464;-73
2022/12/31 08:40:35;;;;;;;0.80;0.50;;;15.40;99.90;;;;;;5073366;28;20947;-73
2022/12/31 08:43:17;;;;;;;1.20;0.60;;;15.50;1.00;;;;;;5073335;28;20792;-72
2022/12/31 08:45:48;;;;;;;1.03;0.50;;;15.50;7.30;;;;;;5073789;28;20465;-73
2022/12/31 08:48:25;;;;;;;1.80;0.63;;;15.50;92.70;;;;;;5072293;28;20976;-73
2022/12/31 08:50:52;;;;;;;0.80;0.50;;;15.50;12.40;;;;;;5073627;28;20453;-73
2022/12/31 08:53:19;;;;;;;1.13;0.60;;;15.50;73.50;;;;;;5073081;28;20489;-73
2022/12/31 08:55:48;;;;;;;0.80;0.53;;;15.60;1.00;;;;;;5073634;28;20457;-73
2022/12/31 08:58:25;;;;;;;1.03;0.60;;;15.60;1.00;;;;;;5072629;28;20577;-73
2022/12/31 09:00:56;;;;;;;8.43;0.83;;;15.70;1.00;;;;;;5073223;28;20936;-74
2022/12/31 09:03:40;;;;;;;2.40;0.80;;;15.70;1.00;;;;;;5072287;28;20445;-72
2022/12/31 09:06:16;;;;;;;1.20;0.60;;;15.60;1.00;;;;;;5073053;28;20442;-73
2022/12/31 09:08:49;;;;;;;0.80;0.50;;;15.80;99.90;;;;;;5072494;28;20473;-72
2022/12/31 09:11:21;;;;;;;2.97;0.70;;;15.60;1.00;;;;;;5072839;28;20460;-72
2022/12/31 09:14:02;;;;;;;0.80;0.57;;;15.60;1.00;;;;;;5072970;28;20472;-73
2022/12/31 09:16:37;;;;;;;0.90;0.60;;;15.60;1.00;;;;;;5073316;28;20452;-73
2022/12/31 09:19:06;;;;;;;1.50;0.60;;;15.80;99.90;;;;;;5072222;28;20445;-72
2022/12/31 09:21:33;;;;;;;3.20;1.00;;;15.80;99.90;;;;;;5072713;28;20454;-73
2022/12/31 09:24:01;;;;;;;0.83;0.63;;;15.80;99.90;;;;;;5073238;28;20457;-73
2022/12/31 09:26:39;;;;;;;1.13;0.63;;;15.90;32.90;;;;;;5073058;28;20442;-73
2022/12/31 09:29:17;;;;;;;0.90;0.57;;;16.00;99.90;;;;;;5072094;28;20456;-72
2022/12/31 09:31:53;;;;;;;1.40;0.63;;;16.20;1.00;;;;;;5072891;28;20468;-73
2022/12/31 09:34:26;;;;;;;0.80;0.60;;;16.20;1.00;;;;;;5071984;28;20480;-73
2022/12/31 09:36:59;;;;;;;0.80;0.60;;;16.10;12.10;;;;;;5072827;28;20468;-73
2022/12/31 09:39:36;;;;;;;0.93;0.70;;;16.30;1.00;;;;;;5072533;28;20548;-76
2022/12/31 09:42:41;;;;;;;1.03;0.67;;;16.20;1.00;;;;;;5072154;28;20446;-73
2022/12/31 09:45:34;;;;;;;1.17;0.57;;;16.30;1.00;;;;;;5072303;28;20449;-73
2022/12/31 09:48:33;;;;;;;0.70;0.50;;;16.40;99.90;;;;;;5071754;28;20446;-71
2022/12/31 09:51:14;;;;;;;0.80;0.60;;;16.50;16.10;;;;;;5059231;28;20456;-74
2022/12/31 09:54:05;;;;;;;0.80;0.60;;;16.70;99.90;;;;;;5071971;28;20476;-74
2022/12/31 09:56:36;;;;;;;1.37;0.70;;;16.80;87.00;;;;;;5063514;28;20930;-73
2022/12/31 09:59:10;;;;;;;0.93;0.60;;;16.80;1.00;;;;;;5071569;28;20464;-74
2022/12/31 10:01:49;;;;;;;0.80;0.53;;;16.90;1.00;;;;;;5072331;28;20450;-74
2022/12/31 10:04:47;;;;;;;0.90;0.60;;;17.00;1.00;;;;;;5071370;28;20447;-73
2022/12/31 10:07:29;;;;;;;1.00;0.70;;;17.10;1.00;;;;;;5058829;28;20461;-73
2022/12/31 10:10:05;;;;;;;2.80;0.80;;;17.10;1.00;;;;;;5071898;28;20976;-74
2022/12/31 10:12:54;;;;;;;0.83;0.50;;;17.20;1.00;;;;;;5072138;28;20441;-73
2022/12/31 10:15:51;;;;;;;0.90;0.57;;;17.20;1.00;;;;;;5058140;28;20949;-73
2022/12/31 10:18:32;;;;;;;0.90;0.70;;;17.20;1.00;;;;;;5070978;28;20457;-73
2022/12/31 10:21:15;;;;;;;0.80;0.60;;;17.30;1.00;;;;;;5071969;28;20452;-74
2022/12/31 10:23:58;;;;;;;0.70;0.50;;;17.30;1.00;;;;;;5072200;28;20843;-74
2022/12/31 10:26:45;;;;;;;1.10;0.60;;;17.20;1.00;;;;;;5071393;28;20765;-73
2022/12/31 10:29:23;;;;;;;0.70;0.50;;;17.20;1.00;;;;;;5070866;28;20798;-73
2022/12/31 10:32:05;;;;;;;0.93;0.60;;;17.30;99.90;;;;;;5071530;28;20921;-73
2022/12/31 10:34:47;;;;;;;1.30;0.80;;;17.40;99.90;;;;;;5071627;28;20916;-73
2022/12/31 10:37:16;;;;;;;0.87;0.60;;;17.40;99.90;;;;;;5071414;28;20460;-73
2022/12/31 10:39:56;;;;;;;1.00;0.63;;;17.50;99.90;;;;;;5058557;28;20456;-74
2022/12/31 10:42:53;;;;;;;2.60;0.87;;;17.40;99.90;;;;;;5071291;28;20451;-73
2022/12/31 10:46:08;;;;;;;0.70;0.50;;;17.50;99.90;;;;;;5071118;28;20449;-73
2022/12/31 10:49:07;;;;;;;0.90;0.50;;;17.50;99.90;;;;;;5052596;28;20472;-74
2022/12/31 10:52:02;;;;;;;0.90;0.60;;;17.60;99.90;;;;;;5053465;28;20452;-73
2022/12/31 10:55:09;;;;;;;1.20;0.70;;;17.50;99.90;;;;;;5059962;28;20480;-73
2022/12/31 10:58:13;;;;;;;0.70;0.60;;;17.70;99.90;;;;;;5058503;28;20442;-73
2022/12/31 11:00:52;;;;;;;0.80;0.60;;;17.80;99.90;;;;;;5071297;28;20441;-73
2022/12/31 11:03:57;;;;;;;2.10;0.73;;;17.80;99.90;;;;;;5070587;28;20453;-73
2022/12/31 11:07:04;;;;;;;1.13;0.60;;;17.90;99.90;;;;;;5070813;28;20472;-74
2022/12/31 11:10:11;;;;;;;0.80;0.70;;;18.00;99.90;;;;;;5071049;28;20488;-73
2022/12/31 11:13:14;;;;;;;0.97;0.60;;;18.10;99.90;;;;;;5071505;28;20446;-75
2022/12/31 11:15:57;;;;;;;1.00;0.60;;;18.10;99.90;;;;;;5071143;28;20476;-74
2022/12/31 11:18:34;;;;;;;0.80;0.60;;;18.20;99.90;;;;;;5069869;28;20921;-73
2022/12/31 11:21:22;;;;;;;1.40;0.60;;;18.30;99.90;;;;;;5070880;28;20468;-70
2022/12/31 11:24:01;;;;;;;0.67;0.47;;;18.30;99.90;;;;;;5071026;28;20501;-74
2022/12/31 11:26:40;;;;;;;0.70;0.50;;;18.50;99.90;;;;;;5071324;28;20767;-74
2022/12/31 11:29:24;;;;;;;0.70;0.50;;;18.40;99.90;;;;;;5074001;28;20452;-76
2022/12/31 11:32:07;;;;;;;0.80;0.60;;;18.50;99.90;;;;;;5075267;28;20445;-74
2022/12/31 11:35:12;;;;;;;1.10;0.60;;;18.50;99.90;;;;;;5075010;28;20473;-73
2022/12/31 11:37:45;;;;;;;1.33;0.60;;;18.40;99.90;;;;;;5062654;28;20945;-75
2022/12/31 11:40:40;;;;;;;1.87;0.70;;;18.40;99.90;;;;;;5074104;28;20445;-75
2022/12/31 11:43:21;;;;;;;0.70;0.40;;;18.30;99.90;;;;;;5065447;28;20461;-75
2022/12/31 11:46:29;;;;;;;2.83;0.50;;;18.30;99.90;;;;;;5074913;28;20447;-75
2022/12/31 11:49:10;;;;;;;0.77;0.50;;;18.60;99.90;;;;;;5074445;28;20800;-74
2022/12/31 11:51:59;;;;;;;1.03;0.60;;;18.60;99.90;;;;;;5075061;28;20441;-75
2022/12/31 11:54:40;;;;;;;0.70;0.50;;;18.50;99.90;;;;;;5063395;28;20492;-75
2022/12/31 11:57:17;;;;;;;4.83;0.80;;;18.60;99.90;;;;;;5074180;28;20441;-75
2022/12/31 11:59:46;;;;;;;1.30;0.60;;;18.50;99.90;;;;;;5074300;28;20456;-75
2022/12/31 12:02:24;;;;;;;0.70;0.50;;;18.60;99.90;;;;;;5074122;28;20449;-75
2022/12/31 12:04:52;;;;;;;0.70;0.47;;;18.60;99.90;;;;;;5074240;28;20940;-75
2022/12/31 12:07:19;;;;;;;0.80;0.73;;;18.70;99.90;;;;;;5073907;28;20453;-75
2022/12/31 12:09:47;;;;;;;0.73;0.50;;;18.60;99.90;;;;;;5073597;28;20644;-75
2022/12/31 12:12:14;;;;;;;3.03;0.70;;;18.70;99.90;;;;;;5073856;28;20799;-75
2022/12/31 12:14:42;;;;;;;1.83;0.90;;;18.80;99.90;;;;;;5074456;28;20481;-74
2022/12/31 12:17:16;;;;;;;0.80;0.50;;;18.90;99.90;;;;;;5074080;28;20445;-75
2022/12/31 12:19:45;;;;;;;1.13;0.70;;;18.70;99.90;;;;;;5073477;28;20452;-74
2022/12/31 12:22:19;;;;;;;1.37;0.63;;;18.80;99.90;;;;;;5073883;28;20441;-74
2022/12/31 12:24:53;;;;;;;0.60;0.40;;;18.90;99.90;;;;;;5074195;28;20457;-75
2022/12/31 12:27:22;;;;;;;0.97;0.63;;;18.90;99.90;;;;;;5073548;28;20440;-75
2022/12/31 12:29:49;;;;;;;2.80;0.63;;;18.90;99.90;;;;;;5073624;28;20796;-75
2022/12/31 12:32:19;;;;;;;1.27;0.63;;;18.80;99.90;;;;;;5073411;28;20449;-75
2022/12/31 12:34:46;;;;;;;0.83;0.50;;;18.90;99.90;;;;;;5074307;28;20804;-75
2022/12/31 12:37:27;;;;;;;0.77;0.57;;;18.90;99.90;;;;;;5073249;28;20464;-75
2022/12/31 12:39:57;;;;;;;0.90;0.73;;;19.00;99.90;;;;;;5072908;28;20448;-75
2022/12/31 12:42:24;;;;;;;1.00;0.70;;;19.00;99.90;;;;;;5073372;28;20445;-75
2022/12/31 12:45:01;;;;;;;0.77;0.60;;;18.90;99.90;;;;;;5073881;28;20481;-75
2022/12/31 12:47:30;;;;;;;0.80;0.50;;;18.90;99.90;;;;;;5073812;28;20540;-75
2022/12/31 12:49:59;;;;;;;0.80;0.67;;;18.90;99.90;;;;;;5073475;28;20465;-75
2022/12/31 12:52:51;;;;;;;1.00;0.73;;;19.00;99.90;;;;;;5073763;28;20867;-75
2022/12/31 12:55:23;;;;;;;0.77;0.50;;;19.10;99.90;;;;;;5073009;28;20477;-75
2022/12/31 12:57:59;;;;;;;0.80;0.50;;;19.10;99.90;;;;;;5073350;28;20434;-75
2022/12/31 13:00:32;;;;;;;1.90;0.60;;;19.10;99.90;;;;;;5073737;28;20495;-76
2022/12/31 13:03:25;;;;;;;0.80;0.50;;;19.20;99.90;;;;;;5073684;28;20446;-75
2022/12/31 13:06:04;;;;;;;1.67;0.53;;;19.20;99.90;;;;;;5062166;28;20457;-76
2022/12/31 13:08:46;;;;;;;0.90;0.60;;;19.00;99.90;;;;;;5072903;28;20460;-75
2022/12/31 13:11:26;;;;;;;1.63;0.50;;;19.10;99.90;;;;;;5073138;28;20785;-75
2022/12/31 13:14:03;;;;;;;0.97;0.50;;;19.00;99.90;;;;;;5073418;28;20806;-75
2022/12/31 13:16:37;;;;;;;1.20;0.60;;;19.20;99.90;;;;;;5073525;28;20453;-76
2022/12/31 13:19:16;;;;;;;1.17;0.67;;;19.30;99.90;;;;;;5072307;28;20434;-75
2022/12/31 13:21:53;;;;;;;0.97;0.50;;;19.20;99.90;;;;;;5073110;28;20449;-75
2022/12/31 13:24:35;;;;;;;2.03;0.67;;;19.10;99.90;;;;;;5072593;28;20437;-75
2022/12/31 13:27:08;;;;;;;0.80;0.70;;;19.10;99.90;;;;;;5072661;28;20449;-72
2022/12/31 13:29:37;;;;;;;0.70;0.40;;;19.00;99.90;;;;;;5072652;28;20445;-76
2022/12/31 13:32:07;;;;;;;0.80;0.60;;;19.10;99.90;;;;;;5072501;28;20449;-75